Sunday, July 22, 2018, 12:42 AM EDT
Back to Local

KHYA, Hyannis Barnstable Boardmn

Location: West Yarmouth, MA, United States Lat: 41.667
Local Time: 12:42 AM EDT ( 4:42 GMT) Lon: -70.267
Time Zone: US/Eastern Elev: 52 ft

Show me the last for .
Show Decoded

2018-07-21 23:56 METAR KHYA 220356Z 08004KT 10SM OVC006 18/17 A3009 RMK AO2 SLP189 T01830172 =
2018-07-21 23:06 METAR KHYA 220306Z 07003KT 10SM BKN007 BKN080 18/17 A3010 RMK AO2 T01780167 =
2018-07-21 22:56 METAR KHYA 220256Z 06004KT 10SM SCT009 BKN080 18/16 A3010 RMK AO2 SLP193
                 T01780161 58006 =
2018-07-21 22:40 METAR KHYA 220240Z VRB04KT 10SM SCT009 18/16 A3010 RMK AO2 T01780161 =
2018-07-21 21:56 METAR KHYA 220156Z 10005KT 10SM BKN009 18/16 A3012 RMK AO2 SLP199 T01780161 =
2018-07-21 21:25 METAR KHYA 220125Z 07005KT 10SM BKN009 18/16 A3012 RMK AO2 T01780161 =
2018-07-21 21:09 METAR KHYA 220109Z 08004KT 10SM SCT009 18/16 A3012 RMK AO2 T01780156 =
2018-07-21 20:56 METAR KHYA 220056Z 09003KT 10SM SCT010 18/16 A3012 RMK AO2 SLP201 T01780156 =
2018-07-21 19:56 METAR KHYA 212356Z 10005KT 10SM FEW011 18/16 A3011 RMK AO2 SLP198 T01830156
                 10228 20183 53000 =
2018-07-21 18:56 METAR KHYA 212256Z 09005KT 10SM FEW012 19/16 A3011 RMK AO2 SLP196 T01890156 =
2018-07-21 17:56 METAR KHYA 212156Z 11008KT 10SM CLR 20/16 A3011 RMK AO2 SLP196 T02000161 =
2018-07-21 16:56 METAR KHYA 212056Z 13008KT 090V150 10SM CLR 21/16 A3011 RMK AO2 SLP198 T02060161
                 55006 =
2018-07-21 15:56 METAR KHYA 211956Z 11010KT 10SM CLR 21/16 A3011 RMK AO2 SLP198 T02060161 =
2018-07-21 14:56 METAR KHYA 211856Z COR 15009KT 130V190 10SM SCT019 22/17 A3012 RMK AO2 SLP201
                 T02220167 =
2018-07-21 13:56 METAR KHYA 211756Z 13013KT 10SM FEW015 22/17 A3013 RMK AO2 SLP204 T02220167
                 10239 20172 58011 =
2018-07-21 12:56 METAR KHYA 211656Z 17007KT 10SM FEW025 21/17 A3016 RMK AO2 SLP213 T02110167 =
2018-07-21 11:56 METAR KHYA 211556Z 13008KT 10SM FEW024 23/16 A3015 RMK AO2 SLP211 T02280161 =
2018-07-21 10:56 METAR KHYA 211456Z VRB03KT 10SM SCT017 22/16 A3016 RMK AO2 SLP215 T02170156
                 51002 =
2018-07-21 10:36 METAR KHYA 211436Z 07006KT 10SM SCT015 21/16 A3016 RMK AO2 T02110156 =
2018-07-21 09:56 METAR KHYA 211356Z 11008KT 10SM BKN011 20/16 A3016 RMK AO2 SLP215 T02000161 =
2018-07-21 09:27 METAR KHYA 211327Z 11006KT 10SM OVC011 19/16 A3017 RMK AO2 T01890156 =
2018-07-21 08:56 METAR KHYA 211256Z 13006KT 10SM OVC009 18/16 A3017 RMK AO2 CIG 008V013 SLP216
                 T01830156 =
2018-07-21 07:56 METAR KHYA 211156Z 09005KT 9SM OVC003 17/16 A3016 RMK AO2 SLP213 T01720161 10172
                 20111 53005 =
2018-07-21 07:13 METAR KHYA 211113Z 11006KT 8SM BKN003 16/16 A3015 RMK AO2 T01610156 =
2018-07-21 07:04 METAR KHYA 211104Z 10005KT 10SM SCT003 16/15 A3015 RMK AO2 T01610150 =
2018-07-21 06:56 METAR KHYA 211056Z 09005KT 10SM CLR 17/15 A3015 RMK AO2 SLP211 T01670150 =
2018-07-21 05:56 METAR KHYA 210956Z 00000KT 10SM CLR 12/11 A3015 RMK AO2 SLP209 T01220106 =
2018-07-21 04:56 METAR KHYA 210856Z AUTO 05003KT 10SM CLR 11/10 A3014 RMK AO2 SLP208 T01110100
                 56003 =
2018-07-21 03:56 METAR KHYA 210756Z AUTO 00000KT 10SM CLR 11/10 A3015 RMK AO2 SLP211 T01110100 =
2018-07-21 02:56 METAR KHYA 210656Z AUTO 00000KT 10SM CLR 12/10 A3014 RMK AO2 SLP207 T01170100 =
2018-07-21 01:56 METAR KHYA 210556Z AUTO 00000KT 10SM CLR 12/09 A3015 RMK AO2 SLP211 T01170094
                 10206 20117 55005 =
2018-07-21 00:56 METAR KHYA 210456Z AUTO 00000KT 10SM CLR 12/09 A3015 RMK AO2 SLP210 T01170094
                 402720117 =

Support USWX by starting your Amazon purchase here.